Time;durP1;ratioP1;P1;durP2;ratioP2;P2;SDS_P1;SDS_P2;PMS_P1;PMS_P2;Temp;Humidity;BMP_temperature;BMP_pressure;BME280_temperature;BME280_humidity;BME280_pressure;Samples;Min_cycle;Max_cycle;Signal;HPM_P1;HPM_P2
2021/07/22 00:02:14;;;;;;;3.83;3.50;;;25.80;47.40;;;;;;5056125;28;20506;-57
2021/07/22 00:04:40;;;;;;;4.45;4.00;;;25.80;47.40;;;;;;5055394;28;20491;-58
2021/07/22 00:07:06;;;;;;;3.92;3.35;;;25.80;47.40;;;;;;5055457;28;20110;-57
2021/07/22 00:09:32;;;;;;;4.38;3.72;;;25.80;47.50;;;;;;5037686;28;20037;-60
2021/07/22 00:11:58;;;;;;;3.70;3.35;;;25.80;47.50;;;;;;5054586;28;20033;-60
2021/07/22 00:14:28;;;;;;;3.97;3.38;;;25.80;47.50;;;;;;5054974;28;20044;-59
2021/07/22 00:16:54;;;;;;;7.60;3.67;;;25.80;47.50;;;;;;5055303;28;20036;-58
2021/07/22 00:19:20;;;;;;;4.10;3.28;;;25.80;47.60;;;;;;5055320;28;20037;-58
2021/07/22 00:21:45;;;;;;;4.10;3.70;;;25.80;47.60;;;;;;5055372;28;20459;-59
2021/07/22 00:24:11;;;;;;;4.35;3.88;;;25.70;47.60;;;;;;5054489;28;20025;-60
2021/07/22 00:26:38;;;;;;;4.47;3.40;;;25.80;47.70;;;;;;5055482;28;20048;-59
2021/07/22 00:29:04;;;;;;;4.40;3.58;;;25.80;47.70;;;;;;5054829;28;20069;-59
2021/07/22 00:31:29;;;;;;;4.00;3.50;;;25.80;47.80;;;;;;5037720;28;20052;-59
2021/07/22 00:33:55;;;;;;;4.65;3.75;;;25.70;47.70;;;;;;5054856;28;20115;-59
2021/07/22 00:36:21;;;;;;;4.03;3.60;;;25.70;47.80;;;;;;5055285;28;20108;-58
2021/07/22 00:38:49;;;;;;;4.05;3.65;;;25.70;47.80;;;;;;5054551;28;20028;-58
2021/07/22 00:41:15;;;;;;;4.72;3.88;;;25.70;47.90;;;;;;5055299;28;20025;-59
2021/07/22 00:43:41;;;;;;;4.25;3.85;;;25.70;47.90;;;;;;5036456;28;20028;-58
2021/07/22 00:46:08;;;;;;;3.63;3.25;;;25.70;47.90;;;;;;5037288;28;20037;-59
2021/07/22 00:48:35;;;;;;;3.92;3.40;;;25.70;48.00;;;;;;5036456;28;20036;-56
2021/07/22 00:51:02;;;;;;;5.05;3.85;;;25.70;48.00;;;;;;5036828;28;20028;-58
2021/07/22 00:53:27;;;;;;;4.10;3.35;;;25.70;48.10;;;;;;5054527;28;20032;-57
2021/07/22 00:55:57;;;;;;;4.32;3.92;;;25.70;48.20;;;;;;5037480;28;20368;-55
2021/07/22 00:58:23;;;;;;;4.60;3.80;;;25.60;48.00;;;;;;5036152;28;20025;-58
2021/07/22 01:00:49;;;;;;;3.80;3.40;;;25.60;48.10;;;;;;5054758;28;20072;-55
2021/07/22 01:03:15;;;;;;;4.45;4.00;;;25.60;48.10;;;;;;5054538;28;20717;-59
2021/07/22 01:05:40;;;;;;;4.10;3.63;;;25.70;48.20;;;;;;5053807;28;20033;-59
2021/07/22 01:08:06;;;;;;;4.03;3.63;;;25.60;48.20;;;;;;5054338;28;20048;-60
2021/07/22 01:10:32;;;;;;;4.30;3.38;;;25.60;48.20;;;;;;5036587;28;20061;-59
2021/07/22 01:13:00;;;;;;;4.57;3.83;;;25.60;48.30;;;;;;5036383;28;20120;-59
2021/07/22 01:15:31;;;;;;;4.47;3.78;;;25.60;48.30;;;;;;5036722;28;20416;-59
2021/07/22 01:17:57;;;;;;;4.22;3.78;;;25.60;48.40;;;;;;5036626;28;20036;-57
2021/07/22 01:20:25;;;;;;;4.32;3.45;;;25.60;48.40;;;;;;5053331;28;20033;-59
2021/07/22 01:22:55;;;;;;;4.35;3.65;;;25.60;48.40;;;;;;5034199;28;20344;-59
2021/07/22 01:25:23;;;;;;;4.38;3.80;;;25.60;48.40;;;;;;5053843;28;20029;-57
2021/07/22 01:27:52;;;;;;;4.05;3.50;;;25.60;48.50;;;;;;5036708;28;20029;-59
2021/07/22 01:30:18;;;;;;;4.57;4.07;;;25.60;48.60;;;;;;5053466;28;20364;-60
2021/07/22 01:32:45;;;;;;;4.05;3.65;;;25.60;48.60;;;;;;5054543;28;20029;-56
2021/07/22 01:35:13;;;;;;;4.00;3.42;;;25.50;48.60;;;;;;5053260;28;20040;-58
2021/07/22 01:37:41;;;;;;;4.38;3.97;;;25.60;48.70;;;;;;5036184;28;20035;-58
2021/07/22 01:40:09;;;;;;;4.53;3.92;;;25.50;48.70;;;;;;5054154;28;20033;-58
2021/07/22 01:42:35;;;;;;;4.47;3.88;;;25.50;48.70;;;;;;5036061;28;20080;-58
2021/07/22 01:45:04;;;;;;;4.15;3.60;;;25.50;48.70;;;;;;5036325;28;20029;-58
2021/07/22 01:47:34;;;;;;;4.45;4.05;;;25.50;48.70;;;;;;5020408;28;20033;-58
2021/07/22 01:50:00;;;;;;;4.40;4.00;;;25.50;48.70;;;;;;5040598;28;20033;-57
2021/07/22 01:52:26;;;;;;;4.32;3.58;;;25.50;48.70;;;;;;5058134;28;20044;-58
2021/07/22 01:54:52;;;;;;;4.28;3.80;;;25.50;48.80;;;;;;5042544;28;20448;-59
2021/07/22 01:57:21;;;;;;;4.78;4.10;;;25.40;48.70;;;;;;5040543;28;20399;-58
2021/07/22 01:59:48;;;;;;;4.35;3.95;;;25.50;48.90;;;;;;5039438;28;20025;-59
2021/07/22 02:02:15;;;;;;;4.63;3.88;;;25.50;49.00;;;;;;5058323;28;20499;-57
2021/07/22 02:04:44;;;;;;;3.45;3.05;;;25.40;49.00;;;;;;5057542;28;20056;-59
2021/07/22 02:07:11;;;;;;;4.13;3.70;;;25.40;49.00;;;;;;5039504;28;20437;-57
2021/07/22 02:09:43;;;;;;;4.43;3.83;;;25.40;49.00;;;;;;5039557;28;20047;-59
2021/07/22 02:12:10;;;;;;;4.88;4.07;;;25.40;49.00;;;;;;5040224;28;20045;-60
2021/07/22 02:14:38;;;;;;;3.83;3.40;;;25.40;49.10;;;;;;5055364;28;20051;-57
2021/07/22 02:17:05;;;;;;;4.50;3.50;;;25.40;49.10;;;;;;5040321;28;20025;-58
2021/07/22 02:19:31;;;;;;;4.43;3.95;;;25.40;49.10;;;;;;5039409;28;20037;-59
2021/07/22 02:22:01;;;;;;;4.80;4.15;;;25.40;49.20;;;;;;5058086;28;20033;-59
2021/07/22 02:24:29;;;;;;;4.60;3.97;;;25.40;49.20;;;;;;5039282;28;20071;-57
2021/07/22 02:27:06;;;;;;;4.00;3.60;;;25.40;49.30;;;;;;5040261;28;20047;-57
2021/07/22 02:29:32;;;;;;;4.53;3.85;;;25.40;49.30;;;;;;5038631;28;20040;-58
2021/07/22 02:31:58;;;;;;;4.25;3.85;;;25.40;49.30;;;;;;5057782;28;20041;-58
2021/07/22 02:34:25;;;;;;;4.10;3.58;;;25.30;49.30;;;;;;5057575;28;20047;-58
2021/07/22 02:36:54;;;;;;;5.13;3.80;;;25.40;49.40;;;;;;5039574;28;20040;-59
2021/07/22 02:39:41;;;;;;;4.20;3.80;;;25.40;49.50;;;;;;5038242;28;20032;-58
2021/07/22 02:42:07;;;;;;;4.57;3.70;;;25.30;49.40;;;;;;5057248;28;20032;-58
2021/07/22 02:44:39;;;;;;;4.47;3.88;;;25.30;49.50;;;;;;5038188;28;20036;-58
2021/07/22 02:47:16;;;;;;;4.55;3.92;;;25.30;49.50;;;;;;5038708;28;20028;-59
2021/07/22 02:49:43;;;;;;;5.22;3.97;;;25.30;49.50;;;;;;5038575;28;20394;-59
2021/07/22 02:52:12;;;;;;;4.00;3.58;;;25.30;49.60;;;;;;5039614;28;20041;-59
2021/07/22 02:54:42;;;;;;;5.18;4.25;;;25.30;49.60;;;;;;5038934;28;20842;-59
2021/07/22 02:57:08;;;;;;;5.32;4.40;;;25.30;49.60;;;;;;5039532;28;20432;-59
2021/07/22 02:59:34;;;;;;;5.45;3.95;;;25.30;49.60;;;;;;5056025;28;20029;-59
2021/07/22 03:02:02;;;;;;;5.00;4.05;;;25.30;49.70;;;;;;5039148;28;20029;-58
2021/07/22 03:04:30;;;;;;;4.85;3.63;;;25.30;49.70;;;;;;5038505;28;20330;-58
2021/07/22 03:07:14;;;;;;;5.20;3.58;;;25.20;49.70;;;;;;5038779;28;20044;-58
2021/07/22 03:09:40;;;;;;;4.15;3.60;;;25.30;49.70;;;;;;5038410;28;20079;-55
2021/07/22 03:12:07;;;;;;;4.38;3.67;;;25.30;49.70;;;;;;5038706;28;20071;-60
2021/07/22 03:14:44;;;;;;;4.30;3.90;;;25.30;49.70;;;;;;5055742;28;20103;-58
2021/07/22 03:17:11;;;;;;;4.38;3.50;;;25.20;50.30;;;;;;5038905;28;20037;-59
2021/07/22 03:19:42;;;;;;;4.40;3.83;;;25.20;49.70;;;;;;5039047;28;20352;-59
2021/07/22 03:22:16;;;;;;;4.63;4.15;;;25.20;49.70;;;;;;5039067;28;20434;-58
2021/07/22 03:24:42;;;;;;;4.28;3.65;;;25.20;49.70;;;;;;5056004;28;20127;-58
2021/07/22 03:27:22;;;;;;;4.90;3.70;;;25.20;49.70;;;;;;5027796;28;20029;-58
2021/07/22 03:29:48;;;;;;;4.43;4.03;;;25.20;49.70;;;;;;5038646;28;20053;-59
2021/07/22 03:32:15;;;;;;;4.43;3.78;;;25.20;49.70;;;;;;5038471;28;20028;-58
2021/07/22 03:34:41;;;;;;;4.78;4.15;;;25.20;49.70;;;;;;5038199;28;20105;-55
2021/07/22 03:37:16;;;;;;;4.25;3.63;;;25.20;49.80;;;;;;5038340;28;20436;-59
2021/07/22 03:39:43;;;;;;;4.53;3.83;;;25.20;49.70;;;;;;5038451;28;20036;-57
2021/07/22 03:42:09;;;;;;;4.68;3.83;;;25.20;49.70;;;;;;5038219;28;20070;-58
2021/07/22 03:44:38;;;;;;;4.70;4.10;;;25.10;49.60;;;;;;5055009;28;20045;-59
2021/07/22 03:47:11;;;;;;;3.77;3.37;;;25.10;49.70;;;;;;5037585;28;20445;-59
2021/07/22 03:49:37;;;;;;;4.15;3.45;;;25.10;49.70;;;;;;5056081;28;20110;-59
2021/07/22 03:52:17;;;;;;;4.43;3.80;;;25.10;49.70;;;;;;5037944;28;20405;-56
2021/07/22 03:54:49;;;;;;;4.20;3.80;;;25.10;49.70;;;;;;5038213;28;20433;-58
2021/07/22 03:57:15;;;;;;;4.72;4.10;;;25.10;49.70;;;;;;5037893;28;20479;-59
2021/07/22 03:59:41;;;;;;;4.38;3.88;;;25.10;49.70;;;;;;5037708;28;20079;-59
2021/07/22 04:02:07;;;;;;;4.70;4.00;;;25.10;49.70;;;;;;5037830;28;20120;-56
2021/07/22 04:04:39;;;;;;;4.30;3.55;;;25.10;49.70;;;;;;5055711;28;20047;-59
2021/07/22 04:07:07;;;;;;;4.60;3.85;;;25.10;49.70;;;;;;5037664;28;20053;-57
2021/07/22 04:09:58;;;;;;;3.75;3.35;;;25.10;49.70;;;;;;5019186;28;20038;-58
2021/07/22 04:12:35;;;;;;;4.20;3.63;;;25.10;49.70;;;;;;5037177;28;20021;-58
2021/07/22 04:15:07;;;;;;;5.07;4.22;;;25.10;49.70;;;;;;5055150;28;20032;-58
2021/07/22 04:17:51;;;;;;;4.68;3.92;;;25.10;49.70;;;;;;5034652;28;20464;-53
2021/07/22 04:20:21;;;;;;;4.57;3.72;;;25.10;49.70;;;;;;5051192;28;20040;-55
2021/07/22 04:22:57;;;;;;;4.13;3.70;;;25.10;49.70;;;;;;5036925;28;20204;-56
2021/07/22 04:25:55;;;;;;;4.90;3.92;;;25.10;49.80;;;;;;5037448;28;20037;-57
2021/07/22 04:28:30;;;;;;;5.00;4.10;;;25.00;49.70;;;;;;5036358;28;20044;-59
2021/07/22 04:30:57;;;;;;;4.32;3.83;;;25.00;49.70;;;;;;5037471;28;20514;-59
2021/07/22 04:33:41;;;;;;;3.90;3.50;;;25.10;49.70;;;;;;5052861;28;20082;-57
2021/07/22 04:36:13;;;;;;;3.97;3.58;;;25.00;49.70;;;;;;5036826;28;20029;-59
2021/07/22 04:38:49;;;;;;;3.60;3.28;;;25.00;49.70;;;;;;5054004;28;20135;-60
2021/07/22 04:41:26;;;;;;;4.00;3.60;;;25.00;49.70;;;;;;5055460;28;20464;-60
2021/07/22 04:44:02;;;;;;;4.43;3.90;;;25.00;49.70;;;;;;5054460;28;20032;-58
2021/07/22 04:46:55;;;;;;;4.10;3.70;;;25.00;49.70;;;;;;5031533;28;20111;-59
2021/07/22 04:49:38;;;;;;;5.13;3.72;;;25.00;49.70;;;;;;5035814;28;20033;-58
2021/07/22 04:52:13;;;;;;;3.67;3.33;;;25.00;49.70;;;;;;5054777;28;20348;-57
2021/07/22 04:55:02;;;;;;;4.85;3.90;;;25.00;49.70;;;;;;5043931;28;20437;-57
2021/07/22 04:57:29;;;;;;;3.80;3.38;;;25.00;49.70;;;;;;5054986;28;20028;-59
2021/07/22 04:59:57;;;;;;;4.60;3.92;;;25.00;49.80;;;;;;5052968;28;20587;-58
2021/07/22 05:02:26;;;;;;;4.45;3.80;;;25.10;49.80;;;;;;5036062;28;20029;-59
2021/07/22 05:04:52;;;;;;;4.63;3.63;;;25.00;49.80;;;;;;5037014;28;20083;-59
2021/07/22 05:07:18;;;;;;;3.50;3.20;;;25.00;49.80;;;;;;5036335;28;20053;-58
2021/07/22 05:09:51;;;;;;;5.18;3.78;;;25.10;49.90;;;;;;5053942;28;20445;-59
2021/07/22 05:12:42;;;;;;;4.05;3.42;;;25.10;49.90;;;;;;5011062;28;20033;-58
2021/07/22 05:15:22;;;;;;;4.47;3.88;;;25.00;49.80;;;;;;5042328;28;20033;-60
2021/07/22 05:18:06;;;;;;;5.63;3.88;;;25.00;49.90;;;;;;5054252;28;20060;-60
2021/07/22 05:20:50;;;;;;;3.40;3.10;;;25.00;49.90;;;;;;5054560;28;20351;-60
2021/07/22 05:23:36;;;;;;;3.67;3.30;;;25.00;49.90;;;;;;5033304;28;20049;-59
2021/07/22 05:26:20;;;;;;;4.18;3.78;;;25.00;50.00;;;;;;5051770;28;20471;-60
2021/07/22 05:28:54;;;;;;;4.43;3.47;;;25.00;50.00;;;;;;5036820;28;20411;-58
2021/07/22 05:31:34;;;;;;;4.38;3.67;;;25.10;50.10;;;;;;5031842;28;20021;-57
2021/07/22 05:34:12;;;;;;;4.13;3.72;;;25.10;50.20;;;;;;5035830;28;20039;-58
2021/07/22 05:36:43;;;;;;;3.92;3.53;;;25.10;50.20;;;;;;5052938;28;20033;-57
2021/07/22 05:39:26;;;;;;;3.97;3.58;;;25.10;50.20;;;;;;5053804;28;20344;-60
2021/07/22 05:41:52;;;;;;;4.20;3.50;;;25.10;50.20;;;;;;5053624;28;20028;-59
2021/07/22 05:44:18;;;;;;;3.90;3.47;;;25.10;50.30;;;;;;5054028;28;20404;-55
2021/07/22 05:46:43;;;;;;;5.25;4.07;;;25.10;50.30;;;;;;5053345;28;20302;-58
2021/07/22 05:49:10;;;;;;;4.97;3.80;;;25.10;50.30;;;;;;5053662;28;20032;-56
2021/07/22 05:51:36;;;;;;;4.10;3.70;;;25.10;50.30;;;;;;5053865;28;20028;-55
2021/07/22 05:54:02;;;;;;;4.78;4.10;;;25.10;50.30;;;;;;5053767;28;20040;-57
2021/07/22 05:56:28;;;;;;;4.10;3.70;;;25.10;50.30;;;;;;5053900;28;20076;-59
2021/07/22 05:58:54;;;;;;;4.10;3.70;;;25.10;50.30;;;;;;5053182;28;20478;-57
2021/07/22 06:01:20;;;;;;;5.47;4.05;;;25.10;50.30;;;;;;5053012;28;20063;-56
2021/07/22 06:03:46;;;;;;;3.75;3.45;;;25.10;50.30;;;;;;5053498;28;20063;-58
2021/07/22 06:06:12;;;;;;;4.03;3.55;;;25.10;50.30;;;;;;5036531;28;20069;-59
2021/07/22 06:08:38;;;;;;;4.75;4.07;;;25.10;50.30;;;;;;5053686;28;20033;-58
2021/07/22 06:11:07;;;;;;;5.28;4.00;;;25.10;50.40;;;;;;5053263;28;20029;-57
2021/07/22 06:13:33;;;;;;;5.25;4.32;;;25.10;50.40;;;;;;5053653;28;20043;-57
2021/07/22 06:16:01;;;;;;;7.97;4.25;;;25.10;50.40;;;;;;5053825;28;20107;-58
2021/07/22 06:18:27;;;;;;;5.07;4.05;;;25.10;50.50;;;;;;5053345;28;20045;-56
2021/07/22 06:20:53;;;;;;;5.38;3.80;;;25.10;50.50;;;;;;5053936;28;20037;-58
2021/07/22 06:23:19;;;;;;;4.68;3.90;;;25.10;50.50;;;;;;5053458;28;20191;-56
2021/07/22 06:25:44;;;;;;;4.38;3.63;;;25.10;50.50;;;;;;5053588;28;20028;-58
2021/07/22 06:28:10;;;;;;;5.22;4.38;;;25.10;50.60;;;;;;5050270;28;20079;-59
2021/07/22 06:30:36;;;;;;;5.45;3.95;;;25.10;50.60;;;;;;5052377;28;20036;-59
2021/07/22 06:33:02;;;;;;;4.32;3.67;;;25.10;50.60;;;;;;5053274;28;20025;-57
2021/07/22 06:35:27;;;;;;;4.20;3.72;;;25.10;50.60;;;;;;5052850;28;20028;-59
2021/07/22 06:37:53;;;;;;;5.47;4.20;;;25.10;50.60;;;;;;5056660;28;20391;-58
2021/07/22 06:40:25;;;;;;;4.57;4.05;;;25.10;50.60;;;;;;5039064;28;20543;-59
2021/07/22 06:42:51;;;;;;;4.25;3.70;;;25.10;50.60;;;;;;5056152;28;20111;-58
2021/07/22 06:45:17;;;;;;;4.45;3.67;;;25.20;50.70;;;;;;5057267;28;20028;-58
2021/07/22 06:47:43;;;;;;;4.28;3.72;;;25.20;50.70;;;;;;5056974;28;20448;-58
2021/07/22 06:50:10;;;;;;;4.78;3.88;;;25.20;50.70;;;;;;5056558;28;20412;-56
2021/07/22 06:52:39;;;;;;;3.85;3.42;;;25.20;50.70;;;;;;5056462;28;20067;-58
2021/07/22 06:55:06;;;;;;;4.60;3.95;;;25.20;50.70;;;;;;5056720;28;20025;-57
2021/07/22 06:57:32;;;;;;;4.20;3.80;;;25.20;50.70;;;;;;5050508;28;20040;-59
2021/07/22 06:59:58;;;;;;;5.20;4.18;;;25.20;50.70;;;;;;5053800;28;20036;-60
2021/07/22 07:02:24;;;;;;;4.10;3.40;;;25.20;50.70;;;;;;5056483;28;20020;-57
2021/07/22 07:04:49;;;;;;;4.28;3.45;;;25.20;50.60;;;;;;5056638;28;20040;-59
2021/07/22 07:07:16;;;;;;;4.63;3.70;;;25.20;50.60;;;;;;5056277;28;20048;-59
2021/07/22 07:09:42;;;;;;;3.63;3.15;;;25.20;50.60;;;;;;5056041;28;20044;-57
2021/07/22 07:12:09;;;;;;;4.18;3.35;;;25.20;50.60;;;;;;5057025;28;20040;-55
2021/07/22 07:14:35;;;;;;;4.07;3.38;;;25.20;50.60;;;;;;5055800;28;20071;-56
2021/07/22 07:17:01;;;;;;;3.45;3.10;;;25.20;50.50;;;;;;5056391;28;20060;-52
2021/07/22 07:19:27;;;;;;;4.10;3.50;;;25.20;50.50;;;;;;5056728;28;20068;-59
2021/07/22 07:21:53;;;;;;;4.13;3.50;;;25.20;50.40;;;;;;5056028;28;20029;-58
2021/07/22 07:24:19;;;;;;;4.05;3.10;;;25.20;50.40;;;;;;5052392;28;20032;-60
2021/07/22 07:26:44;;;;;;;3.78;3.08;;;25.20;50.40;;;;;;5038273;28;20122;-62
2021/07/22 07:29:10;;;;;;;4.15;3.28;;;25.30;50.60;;;;;;5051662;28;20037;-60
2021/07/22 07:31:38;;;;;;;3.22;2.75;;;25.30;50.60;;;;;;5055779;28;20033;-60
2021/07/22 07:34:04;;;;;;;3.65;3.13;;;25.30;50.60;;;;;;5056025;28;20033;-59
2021/07/22 07:36:30;;;;;;;4.47;3.15;;;25.30;50.60;;;;;;5056098;28;20029;-58
2021/07/22 07:38:55;;;;;;;3.40;3.00;;;25.40;50.60;;;;;;5055938;28;20047;-60
2021/07/22 07:41:21;;;;;;;4.72;3.40;;;25.40;50.50;;;;;;5055993;28;20120;-59
2021/07/22 07:43:47;;;;;;;3.50;3.08;;;25.40;50.50;;;;;;5055411;28;20017;-57
2021/07/22 07:46:13;;;;;;;3.80;2.95;;;25.50;50.40;;;;;;5054448;28;20033;-58
2021/07/22 07:48:39;;;;;;;3.22;2.92;;;25.50;50.40;;;;;;5055245;28;20068;-58
2021/07/22 07:51:08;;;;;;;3.30;3.00;;;25.50;50.30;;;;;;5055841;28;20332;-58
2021/07/22 07:53:34;;;;;;;3.45;3.15;;;25.60;50.30;;;;;;5055567;28;20055;-58
2021/07/22 07:56:03;;;;;;;3.70;3.13;;;25.60;50.20;;;;;;5055681;28;20033;-61
2021/07/22 07:58:29;;;;;;;3.70;2.78;;;25.70;50.20;;;;;;5055785;28;20436;-59
2021/07/22 08:00:55;;;;;;;3.65;3.13;;;25.70;50.10;;;;;;5054366;28;20049;-57
2021/07/22 08:03:21;;;;;;;3.80;3.35;;;25.70;50.00;;;;;;5055852;28;20064;-58
2021/07/22 08:05:48;;;;;;;3.30;3.00;;;25.80;50.10;;;;;;5055367;28;20037;-59
2021/07/22 08:08:14;;;;;;;3.00;2.67;;;25.80;50.00;;;;;;5055340;28;20364;-57
2021/07/22 08:10:43;;;;;;;3.33;3.00;;;25.80;49.90;;;;;;5055323;28;20440;-59
2021/07/22 08:13:10;;;;;;;3.20;2.85;;;25.80;49.80;;;;;;5055252;28;20081;-60
2021/07/22 08:15:43;;;;;;;3.28;2.97;;;25.90;49.70;;;;;;5054083;28;20037;-60
2021/07/22 08:18:09;;;;;;;3.38;3.08;;;25.90;49.60;;;;;;5030501;28;20033;-59
2021/07/22 08:20:35;;;;;;;4.30;3.50;;;25.90;49.50;;;;;;5051672;28;20016;-58
2021/07/22 08:23:01;;;;;;;6.38;3.25;;;25.90;49.50;;;;;;5054669;28;20388;-58
2021/07/22 08:25:27;;;;;;;3.25;2.95;;;26.00;49.50;;;;;;5053484;28;20452;-60
2021/07/22 08:27:53;;;;;;;3.33;3.00;;;26.00;49.40;;;;;;5054442;28;20106;-59
2021/07/22 08:30:19;;;;;;;3.40;3.10;;;26.10;49.60;;;;;;5054544;28;20040;-62
2021/07/22 08:32:45;;;;;;;4.53;3.10;;;26.10;49.60;;;;;;5054584;28;20436;-60
2021/07/22 08:35:11;;;;;;;3.92;3.10;;;26.10;49.50;;;;;;5054262;28;20033;-60
2021/07/22 08:37:38;;;;;;;3.53;3.22;;;26.10;49.40;;;;;;5054589;28;20039;-60
2021/07/22 08:40:05;;;;;;;3.35;3.05;;;26.20;49.20;;;;;;5054335;28;20047;-58
2021/07/22 08:42:35;;;;;;;4.82;3.03;;;26.20;49.20;;;;;;5037094;28;20121;-59
2021/07/22 08:45:03;;;;;;;5.10;3.25;;;26.20;49.00;;;;;;5053430;28;20033;-62
2021/07/22 08:47:30;;;;;;;3.50;3.20;;;26.20;49.00;;;;;;5053657;28;20108;-60
2021/07/22 08:49:56;;;;;;;4.05;3.47;;;26.20;48.90;;;;;;5054254;28;20036;-62
2021/07/22 08:52:23;;;;;;;3.78;3.28;;;26.20;48.80;;;;;;5054550;28;20032;-64
2021/07/22 08:54:49;;;;;;;4.60;3.20;;;26.30;48.80;;;;;;5054557;28;20053;-64
2021/07/22 08:57:17;;;;;;;3.55;3.25;;;26.30;48.80;;;;;;5054440;28;20455;-62
2021/07/22 08:59:43;;;;;;;3.38;3.08;;;26.30;48.70;;;;;;5054023;28;20041;-63
2021/07/22 09:02:18;;;;;;;3.40;2.83;;;26.30;48.50;;;;;;5053584;28;20123;-61
2021/07/22 09:04:55;;;;;;;3.70;2.78;;;26.30;48.40;;;;;;5054410;28;20029;-61
2021/07/22 09:07:21;;;;;;;3.13;2.83;;;26.30;48.20;;;;;;5054062;28;20048;-62
2021/07/22 09:10:22;;;;;;;3.05;2.47;;;26.40;48.20;;;;;;5053949;28;20506;-62
2021/07/22 09:12:51;;;;;;;3.55;3.17;;;26.40;48.00;;;;;;4954152;29;20431;-59
2021/07/22 09:15:21;;;;;;;4.80;3.28;;;26.40;48.00;;;;;;5035528;28;20110;-62
2021/07/22 09:17:47;;;;;;;4.22;3.15;;;26.40;47.90;;;;;;5053776;28;20028;-62
2021/07/22 09:20:29;;;;;;;4.28;3.30;;;26.50;47.90;;;;;;5053971;28;20025;-61
2021/07/22 09:22:55;;;;;;;5.22;3.25;;;26.50;47.80;;;;;;5052772;28;20448;-63
2021/07/22 09:25:42;;;;;;;3.75;3.28;;;26.40;47.60;;;;;;5052271;28;20511;-61
2021/07/22 09:28:12;;;;;;;3.97;2.95;;;26.50;47.50;;;;;;5052306;28;20155;-62
2021/07/22 09:30:38;;;;;;;3.13;2.75;;;26.50;47.60;;;;;;5050404;28;20031;-62
2021/07/22 09:33:05;;;;;;;3.10;2.80;;;26.40;47.40;;;;;;5052910;28;20024;-61
2021/07/22 09:35:34;;;;;;;3.28;2.78;;;26.50;47.30;;;;;;5052336;28;20379;-63
2021/07/22 09:38:10;;;;;;;3.47;3.08;;;26.50;47.30;;;;;;5050084;28;20025;-61
2021/07/22 09:40:36;;;;;;;2.92;2.58;;;26.50;47.10;;;;;;5051836;28;20426;-62
2021/07/22 09:43:03;;;;;;;2.92;2.63;;;26.50;47.00;;;;;;5051886;28;20025;-62
2021/07/22 09:45:31;;;;;;;2.67;2.30;;;26.50;46.90;;;;;;5052586;28;20514;-62
2021/07/22 09:48:06;;;;;;;2.78;2.53;;;26.50;46.80;;;;;;5052681;28;20025;-61
2021/07/22 09:50:39;;;;;;;3.20;2.90;;;26.50;46.70;;;;;;5050123;28;20033;-64
2021/07/22 09:53:07;;;;;;;2.63;2.30;;;26.50;46.60;;;;;;5051522;28;20090;-62
2021/07/22 09:55:34;;;;;;;2.42;2.20;;;26.50;46.60;;;;;;5051991;28;20032;-63
2021/07/22 09:58:06;;;;;;;3.13;2.63;;;26.50;46.60;;;;;;5049456;28;20040;-62
2021/07/22 10:00:33;;;;;;;2.78;2.38;;;26.50;46.50;;;;;;5052859;28;20057;-62
2021/07/22 10:03:01;;;;;;;2.50;2.30;;;26.50;46.40;;;;;;5051551;28;20035;-62
2021/07/22 10:05:39;;;;;;;2.55;2.20;;;26.50;46.30;;;;;;5051983;28;20122;-62
2021/07/22 10:08:06;;;;;;;2.90;2.35;;;26.50;46.20;;;;;;5050372;28;20045;-63
2021/07/22 10:10:35;;;;;;;2.53;2.33;;;26.50;46.20;;;;;;5036481;28;20040;-61
2021/07/22 10:13:02;;;;;;;2.70;2.47;;;26.50;46.10;;;;;;5055892;28;20021;-63
2021/07/22 10:15:31;;;;;;;2.78;2.35;;;26.50;46.10;;;;;;5055387;28;20040;-65
2021/07/22 10:17:58;;;;;;;2.63;2.40;;;26.50;46.10;;;;;;5056327;28;20039;-63
2021/07/22 10:20:32;;;;;;;2.95;2.28;;;26.50;46.00;;;;;;5055905;28;20037;-61
2021/07/22 10:22:58;;;;;;;;;;;26.60;46.00;;;;;;5039670;28;20108;-63
2021/07/22 10:25:24;;;;;;;2.50;2.30;;;26.50;46.00;;;;;;5055619;28;19909;-60
2021/07/22 10:27:53;;;;;;;2.65;2.10;;;26.50;46.00;;;;;;5055531;28;20484;-56
2021/07/22 10:30:21;;;;;;;3.00;2.45;;;26.50;45.90;;;;;;5055691;28;20020;-61
2021/07/22 10:32:48;;;;;;;3.00;2.47;;;26.50;45.80;;;;;;5055734;28;21487;-62
2021/07/22 10:35:34;;;;;;;2.70;2.30;;;26.50;45.70;;;;;;5056114;28;20033;-60
2021/07/22 10:38:10;;;;;;;3.03;2.53;;;26.60;45.50;;;;;;5055125;28;20510;-57
2021/07/22 10:40:57;;;;;;;2.42;2.10;;;26.60;45.40;;;;;;5055009;28;20444;-57
2021/07/22 10:43:43;;;;;;;2.35;2.15;;;26.60;45.30;;;;;;5052848;28;20037;-62
2021/07/22 10:46:10;;;;;;;2.20;2.00;;;26.60;45.30;;;;;;5054392;28;20446;-61
2021/07/22 10:48:37;;;;;;;2.40;2.03;;;26.60;45.40;;;;;;5056301;28;20037;-60
2021/07/22 10:51:16;;;;;;;2.75;2.30;;;26.60;45.40;;;;;;5055548;28;20057;-61
2021/07/22 10:53:50;;;;;;;2.47;2.20;;;26.60;45.40;;;;;;5052572;28;20029;-59
2021/07/22 10:56:22;;;;;;;;;;;26.60;45.40;;;;;;5054694;28;20502;-61
2021/07/22 10:58:51;;;;;;;5.72;2.05;;;26.60;45.50;;;;;;5039492;28;19913;-59
2021/07/22 11:01:45;;;;;;;2.88;2.20;;;26.60;45.60;;;;;;5055243;28;20057;-60
2021/07/22 11:04:34;;;;;;;2.45;2.20;;;26.70;45.60;;;;;;5054741;28;20405;-61
2021/07/22 11:07:00;;;;;;;2.90;2.58;;;26.70;45.60;;;;;;5039724;28;20084;-60
2021/07/22 11:09:46;;;;;;;6.70;2.42;;;26.60;45.60;;;;;;5045475;28;20068;-59
2021/07/22 11:12:55;;;;;;;3.17;2.15;;;26.70;45.60;;;;;;5049232;28;20029;-63
2021/07/22 11:15:59;;;;;;;2.20;2.00;;;26.70;45.60;;;;;;5052799;28;20436;-61
2021/07/22 11:18:43;;;;;;;2.13;1.92;;;26.70;45.50;;;;;;5048293;28;20368;-62
2021/07/22 11:21:09;;;;;;;2.35;2.15;;;26.70;45.50;;;;;;5048692;28;20039;-60
2021/07/22 11:23:36;;;;;;;2.75;2.40;;;26.70;45.60;;;;;;5052449;28;20076;-62
2021/07/22 11:26:02;;;;;;;2.63;2.42;;;26.70;45.50;;;;;;5053574;28;20021;-62
2021/07/22 11:28:28;;;;;;;3.25;2.25;;;26.70;45.50;;;;;;5053668;28;20033;-58
2021/07/22 11:31:04;;;;;;;2.72;2.40;;;26.70;45.50;;;;;;5055279;28;20066;-59
2021/07/22 11:33:34;;;;;;;2.78;2.58;;;26.80;45.40;;;;;;5054266;28;20029;-63
2021/07/22 11:36:08;;;;;;;2.85;2.40;;;26.70;45.30;;;;;;5052894;28;20025;-60
2021/07/22 11:38:35;;;;;;;2.45;2.22;;;26.80;45.40;;;;;;5053408;28;20469;-62
2021/07/22 11:41:01;;;;;;;2.25;2.05;;;26.80;45.40;;;;;;5055391;28;20021;-59
2021/07/22 11:43:52;;;;;;;2.63;2.25;;;26.80;45.30;;;;;;5056274;28;20040;-62
2021/07/22 11:46:34;;;;;;;1.90;1.67;;;26.80;45.30;;;;;;5055878;28;20082;-60
2021/07/22 11:49:11;;;;;;;2.83;2.30;;;26.80;45.30;;;;;;5044246;28;20093;-61
2021/07/22 11:51:38;;;;;;;2.55;2.35;;;26.80;45.30;;;;;;5053903;28;20075;-60
2021/07/22 11:54:05;;;;;;;2.40;2.20;;;26.80;45.30;;;;;;5055359;28;20472;-61
2021/07/22 11:56:33;;;;;;;2.42;2.03;;;26.80;45.30;;;;;;5051874;28;20041;-60
2021/07/22 11:58:59;;;;;;;2.45;2.25;;;26.80;45.20;;;;;;5052232;28;20352;-62
2021/07/22 12:01:25;;;;;;;2.65;2.38;;;26.80;45.20;;;;;;5054143;28;20053;-63
2021/07/22 12:03:51;;;;;;;2.42;2.05;;;26.90;45.20;;;;;;5056080;28;20029;-61
2021/07/22 12:06:24;;;;;;;4.18;2.38;;;26.90;45.20;;;;;;5051876;28;20053;-59
2021/07/22 12:09:03;;;;;;;2.47;2.28;;;26.90;45.00;;;;;;5035799;28;20132;-59
2021/07/22 12:11:28;;;;;;;3.17;2.38;;;26.90;45.00;;;;;;5054747;28;20041;-62
2021/07/22 12:13:54;;;;;;;2.67;2.33;;;26.90;45.00;;;;;;5055704;28;20037;-59
2021/07/22 12:16:25;;;;;;;2.75;2.42;;;26.90;44.90;;;;;;5052305;28;20345;-60
2021/07/22 12:18:52;;;;;;;2.40;2.20;;;26.90;44.90;;;;;;5052260;28;20035;-62
2021/07/22 12:21:19;;;;;;;2.70;2.17;;;26.90;44.80;;;;;;5054854;28;20029;-60
2021/07/22 12:23:45;;;;;;;2.50;2.03;;;26.90;44.80;;;;;;5035291;28;20029;-59
2021/07/22 12:26:15;;;;;;;2.40;2.10;;;26.80;44.70;;;;;;5052177;28;20040;-60
2021/07/22 12:28:42;;;;;;;2.63;2.42;;;26.90;44.70;;;;;;5053245;28;20131;-59
2021/07/22 12:31:21;;;;;;;2.10;1.90;;;26.90;44.60;;;;;;5050467;28;20033;-60
2021/07/22 12:34:02;;;;;;;2.65;2.45;;;26.90;44.50;;;;;;5047442;28;20052;-63
2021/07/22 12:36:33;;;;;;;2.38;2.17;;;26.90;44.50;;;;;;5065076;28;20384;-63
2021/07/22 12:39:32;;;;;;;3.45;2.50;;;26.90;44.50;;;;;;5048026;28;20517;-63
2021/07/22 12:42:12;;;;;;;2.50;2.30;;;26.80;44.30;;;;;;5052245;28;20318;-62
2021/07/22 12:44:43;;;;;;;2.60;2.10;;;26.80;44.20;;;;;;5052457;28;20430;-63
2021/07/22 12:47:26;;;;;;;;;;;26.80;44.30;;;;;;5035786;28;20028;-62
2021/07/22 12:49:53;;;;;;;1.98;1.80;;;26.80;44.30;;;;;;5045541;28;20012;-64
2021/07/22 12:52:19;;;;;;;2.47;2.28;;;26.80;44.30;;;;;;5044561;28;20030;-61
2021/07/22 12:54:46;;;;;;;2.40;2.20;;;26.80;44.30;;;;;;5035385;28;20113;-64
2021/07/22 12:57:11;;;;;;;2.50;2.30;;;26.80;44.20;;;;;;5053309;28;20080;-61
2021/07/22 12:59:37;;;;;;;2.13;1.92;;;26.80;44.10;;;;;;5052320;28;20417;-60
2021/07/22 13:02:04;;;;;;;1.88;1.73;;;26.80;44.10;;;;;;5051709;28;20027;-65
2021/07/22 13:04:34;;;;;;;2.10;1.90;;;26.80;44.00;;;;;;5035253;28;20025;-63